createdAt,value
2017-11-01T00:00:44.960Z,20.64
2017-11-01T00:03:12.214Z,20.63
2017-11-01T00:05:39.431Z,20.62
2017-11-01T00:08:06.616Z,20.62
2017-11-01T00:10:33.817Z,20.60
2017-11-01T00:13:00.994Z,20.60
2017-11-01T00:15:28.438Z,20.59
2017-11-01T00:17:55.618Z,20.58
2017-11-01T00:20:22.841Z,20.58
2017-11-01T00:22:49.995Z,20.57
2017-11-01T00:25:17.185Z,20.56
2017-11-01T00:27:44.388Z,20.55
2017-11-01T00:30:11.576Z,20.54
2017-11-01T00:32:38.743Z,20.53
2017-11-01T00:35:05.967Z,20.54
2017-11-01T00:37:33.265Z,20.53
2017-11-01T00:40:00.499Z,20.51
2017-11-01T00:42:27.688Z,20.50
2017-11-01T00:44:54.922Z,20.49
2017-11-01T00:47:22.138Z,20.49
2017-11-01T00:49:49.309Z,20.49
2017-11-01T00:52:16.500Z,20.48
2017-11-01T00:54:43.662Z,20.47
2017-11-01T00:57:10.851Z,20.45
2017-11-01T00:59:38.068Z,20.46
2017-11-01T01:02:05.275Z,20.45
2017-11-01T01:04:32.532Z,20.43
2017-11-01T01:06:59.757Z,20.43
2017-11-01T01:09:26.916Z,20.42
2017-11-01T01:11:54.114Z,20.42
2017-11-01T01:14:21.264Z,20.43
2017-11-01T01:16:48.439Z,20.42
2017-11-01T01:19:15.653Z,20.41
2017-11-01T01:21:43.086Z,20.40
2017-11-01T01:24:10.777Z,20.40
2017-11-01T01:26:38.064Z,20.39
2017-11-01T01:29:05.370Z,20.38
2017-11-01T01:31:32.535Z,20.38
2017-11-01T01:33:59.725Z,20.37
2017-11-01T01:36:26.919Z,20.37
2017-11-01T01:38:54.144Z,20.35
2017-11-01T01:41:21.307Z,20.35
2017-11-01T01:43:48.546Z,20.34
2017-11-01T01:46:15.715Z,20.34
2017-11-01T01:48:42.988Z,20.33
2017-11-01T01:51:10.190Z,20.32
2017-11-01T01:53:37.339Z,20.31
2017-11-01T01:56:04.573Z,20.31
2017-11-01T01:58:31.742Z,20.30
2017-11-01T02:00:58.936Z,20.30
2017-11-01T02:03:26.100Z,20.31
2017-11-01T02:05:53.301Z,20.33
2017-11-01T02:08:20.568Z,20.34
2017-11-01T02:10:47.727Z,20.28
2017-11-01T02:13:14.893Z,20.25
2017-11-01T02:15:42.092Z,20.23
2017-11-01T02:18:09.314Z,20.21
2017-11-01T02:20:36.483Z,20.16
2017-11-01T02:23:03.651Z,20.13
2017-11-01T02:25:30.880Z,20.10
2017-11-01T02:27:58.042Z,20.07
2017-11-01T02:38:07.508Z,20.01
2017-11-01T02:40:34.705Z,20.01
2017-11-01T02:43:01.848Z,19.99
2017-11-01T02:45:29.075Z,19.99
2017-11-01T02:47:56.262Z,19.96
2017-11-01T02:50:23.463Z,19.98
2017-11-01T02:52:50.603Z,19.97
2017-11-01T02:55:17.831Z,19.96
2017-11-01T02:57:44.994Z,19.97
2017-11-01T03:00:12.207Z,19.96
2017-11-01T03:02:39.371Z,19.95
2017-11-01T03:05:06.662Z,19.96
2017-11-01T03:07:33.827Z,19.95
2017-11-01T03:10:01.043Z,19.97
2017-11-01T03:12:28.322Z,19.95
2017-11-01T03:14:55.514Z,19.94
2017-11-01T03:17:22.737Z,19.94
2017-11-01T03:19:49.888Z,19.93
2017-11-01T03:22:17.068Z,19.93
2017-11-01T03:24:44.259Z,19.93
2017-11-01T03:27:11.501Z,19.92
2017-11-01T03:29:38.727Z,19.93
2017-11-01T03:32:05.912Z,19.92
2017-11-01T03:34:33.105Z,19.92
2017-11-01T03:37:00.297Z,19.92
2017-11-01T03:39:27.440Z,19.93
2017-11-01T03:41:54.644Z,19.93
2017-11-01T03:44:22.142Z,19.92
2017-11-01T03:46:49.300Z,19.92
2017-11-01T03:49:16.572Z,19.92
2017-11-01T03:51:43.742Z,19.92
2017-11-01T03:54:10.937Z,19.93
2017-11-01T03:56:38.103Z,19.91
2017-11-01T03:59:05.348Z,19.89
2017-11-01T04:01:32.559Z,19.90
2017-11-01T04:03:59.796Z,19.89
2017-11-01T04:06:27.000Z,19.90
2017-11-01T04:08:54.187Z,19.88
2017-11-01T04:11:21.411Z,19.88
2017-11-01T04:13:48.651Z,19.90
2017-11-01T04:16:15.804Z,19.91
2017-11-01T04:18:42.995Z,19.93
2017-11-01T04:21:10.194Z,19.94
2017-11-01T04:23:37.438Z,19.96
2017-11-01T04:26:04.632Z,19.97
2017-11-01T04:28:31.781Z,19.99
2017-11-01T04:30:59.081Z,19.99
2017-11-01T04:33:26.251Z,20.00
2017-11-01T04:35:53.415Z,20.00
2017-11-01T04:38:20.642Z,20.02
2017-11-01T04:40:47.792Z,20.03
2017-11-01T04:43:15.120Z,20.07
2017-11-01T04:45:42.348Z,20.13
2017-11-01T04:48:09.601Z,20.20
2017-11-01T06:17:45.742Z,21.23
2017-11-01T07:47:36.202Z,21.85
2017-11-01T11:36:39.985Z,23.60
2017-11-01T16:49:55.191Z,23.28
2017-11-01T16:52:23.193Z,23.27
2017-11-01T16:54:50.438Z,23.24
2017-11-01T16:57:17.705Z,23.22
2017-11-01T16:59:44.947Z,23.21
2017-11-01T17:02:13.710Z,23.20
2017-11-01T17:04:40.958Z,23.17
2017-11-01T17:07:08.131Z,23.14
2017-11-01T17:09:35.363Z,23.13
2017-11-01T17:12:02.878Z,23.10
2017-11-01T17:14:30.065Z,23.07
2017-11-01T17:16:57.398Z,23.05
2017-11-01T17:19:24.645Z,23.02
2017-11-01T17:21:52.184Z,22.99
2017-11-01T17:26:52.240Z,22.95
2017-11-01T17:29:19.520Z,22.91
2017-11-01T17:31:46.799Z,22.88
2017-11-01T17:34:14.094Z,22.86
2017-11-01T17:36:41.362Z,22.84
2017-11-01T17:39:08.588Z,22.82
2017-11-01T17:41:35.825Z,22.79
2017-11-01T17:44:04.269Z,22.76
2017-11-01T17:46:31.477Z,22.73
2017-11-01T17:48:58.773Z,22.74
2017-11-01T17:51:25.948Z,22.72
2017-11-01T17:53:53.196Z,22.66
2017-11-01T17:56:20.449Z,22.64
2017-11-01T17:58:47.815Z,22.63
2017-11-01T18:01:15.023Z,22.58
2017-11-01T18:03:42.215Z,22.59
2017-11-01T18:06:09.471Z,22.64
2017-11-01T18:08:36.689Z,22.67
2017-11-01T18:11:03.969Z,22.68
2017-11-01T18:13:31.177Z,22.69
2017-11-01T18:15:58.483Z,22.70
2017-11-01T18:18:25.697Z,22.70
2017-11-01T18:20:52.933Z,22.71
2017-11-01T18:23:20.198Z,22.72
2017-11-01T18:25:47.387Z,22.72
2017-11-01T18:28:14.643Z,22.72
2017-11-01T18:30:41.840Z,22.72
2017-11-01T18:33:09.100Z,22.72
2017-11-01T18:35:36.358Z,22.73
2017-11-01T18:38:03.532Z,22.72
2017-11-01T18:40:30.788Z,22.73
2017-11-01T18:42:57.955Z,22.71
2017-11-01T18:45:25.125Z,22.69
2017-11-01T18:47:52.385Z,22.70
2017-11-01T18:50:19.586Z,22.69
2017-11-01T18:52:46.815Z,22.69
2017-11-01T18:55:14.206Z,22.68
2017-11-01T18:57:41.395Z,22.67
2017-11-01T19:00:08.632Z,22.67
2017-11-01T19:02:35.947Z,22.66
2017-11-01T19:05:03.145Z,22.64
2017-11-01T19:07:30.313Z,22.64
2017-11-01T19:09:57.543Z,22.63
2017-11-01T19:12:24.741Z,22.63
2017-11-01T19:14:52.572Z,22.61
2017-11-01T19:17:19.775Z,22.60
2017-11-01T19:19:47.026Z,22.60
2017-11-01T19:22:14.318Z,22.58
2017-11-01T19:24:41.539Z,22.55
2017-11-01T19:27:08.913Z,22.56
2017-11-01T19:29:36.138Z,22.55
2017-11-01T19:32:04.024Z,22.54
2017-11-01T19:34:31.381Z,22.53
2017-11-01T19:42:06.225Z,22.48
2017-11-01T19:44:33.449Z,22.48
2017-11-01T19:47:00.654Z,22.46
2017-11-01T19:49:27.864Z,22.45
2017-11-01T19:51:55.154Z,22.45
2017-11-01T19:54:22.351Z,22.44
2017-11-01T19:56:49.607Z,22.43
2017-11-01T19:59:16.776Z,22.42
2017-11-01T20:01:43.992Z,22.40
2017-11-01T20:04:11.173Z,22.39
2017-11-01T20:06:38.362Z,22.37
2017-11-01T20:09:05.635Z,22.36
2017-11-01T20:11:32.815Z,22.35
2017-11-01T20:14:00.608Z,22.33
2017-11-01T20:16:27.808Z,22.32
2017-11-01T20:18:54.990Z,22.26
2017-11-01T20:21:22.194Z,22.20
2017-11-01T20:23:49.412Z,22.16
2017-11-01T20:26:16.633Z,22.10
2017-11-01T20:28:43.806Z,22.04
2017-11-01T20:31:11.008Z,21.98
2017-11-01T20:36:11.709Z,21.87
2017-11-01T20:38:38.956Z,21.83
2017-11-01T20:41:06.192Z,21.76
2017-11-01T20:43:33.429Z,21.71
2017-11-01T20:46:00.635Z,21.67
2017-11-01T20:48:27.876Z,21.62
2017-11-01T20:50:55.175Z,21.56
2017-11-01T20:53:22.840Z,21.54
2017-11-01T20:55:52.105Z,21.49
2017-11-01T20:58:19.352Z,21.46
2017-11-01T21:00:46.637Z,21.42
2017-11-01T21:03:13.818Z,21.39
2017-11-01T21:05:41.080Z,21.37
2017-11-01T21:08:08.287Z,21.33
2017-11-01T21:10:35.671Z,21.28
2017-11-01T21:13:05.292Z,21.26
2017-11-01T21:15:32.548Z,21.22
2017-11-01T21:17:59.885Z,21.18
2017-11-01T21:20:27.113Z,21.16
2017-11-01T21:22:54.378Z,21.11
2017-11-01T21:25:21.593Z,21.12
2017-11-01T21:27:49.187Z,21.08
2017-11-01T21:30:16.363Z,21.07
2017-11-01T21:32:43.598Z,21.05
2017-11-01T21:35:10.847Z,21.01
2017-11-01T21:37:38.117Z,21.00
2017-11-01T21:40:05.359Z,20.97
2017-11-01T21:42:32.919Z,20.95
2017-11-01T21:45:00.160Z,20.94
2017-11-01T21:47:27.520Z,20.93
2017-11-01T21:49:56.008Z,20.90
2017-11-01T21:52:25.281Z,20.88
2017-11-01T21:54:52.446Z,20.85
2017-11-01T21:57:19.661Z,20.84
2017-11-01T21:59:46.956Z,20.83
2017-11-01T22:02:14.219Z,20.82
2017-11-01T22:04:41.428Z,20.81
2017-11-01T22:07:08.640Z,20.79
2017-11-01T22:09:35.835Z,20.76
2017-11-01T22:12:03.027Z,20.74
2017-11-01T22:14:30.276Z,20.72
2017-11-01T22:16:57.567Z,20.72
2017-11-01T22:19:24.774Z,20.69
2017-11-01T22:21:51.988Z,20.69
2017-11-01T22:24:19.248Z,20.68
2017-11-01T22:26:46.447Z,20.66
2017-11-01T22:29:13.674Z,20.65
2017-11-01T22:31:40.867Z,20.64
2017-11-01T22:34:08.057Z,20.63
2017-11-01T22:36:35.354Z,20.61
2017-11-01T22:39:02.518Z,20.60
2017-11-01T22:41:29.704Z,20.57
2017-11-01T22:43:56.923Z,20.56
2017-11-01T22:46:24.161Z,20.55
2017-11-01T22:48:51.441Z,20.53
2017-11-01T22:51:18.651Z,20.52
2017-11-01T22:53:45.885Z,20.50
2017-11-01T22:56:13.211Z,20.49
2017-11-01T22:58:40.454Z,20.49
2017-11-01T23:01:07.699Z,20.48
2017-11-01T23:03:34.946Z,20.46
2017-11-01T23:06:02.768Z,20.44
2017-11-01T23:08:29.928Z,20.43
2017-11-01T23:10:57.160Z,20.41
2017-11-01T23:13:24.441Z,20.41
2017-11-01T23:15:51.734Z,20.40
2017-11-01T23:18:18.950Z,20.39
2017-11-01T23:20:46.180Z,20.38
2017-11-01T23:23:13.374Z,20.36
2017-11-01T23:25:40.843Z,20.35
2017-11-01T23:28:08.064Z,20.33
2017-11-01T23:30:35.246Z,20.31
2017-11-01T23:33:02.537Z,20.30
2017-11-01T23:35:29.731Z,20.31
2017-11-01T23:37:56.927Z,20.28
2017-11-01T23:40:24.132Z,20.28
2017-11-01T23:42:51.422Z,20.25
2017-11-01T23:45:18.696Z,20.24
2017-11-01T23:47:45.997Z,20.23
2017-11-01T23:50:13.236Z,20.22
2017-11-01T23:52:40.446Z,20.21
2017-11-01T23:55:07.724Z,20.20
2017-11-01T23:57:34.902Z,20.19
